sensor_id;sensor_type;location;lat;lon;timestamp;P1;durP1;ratioP1;P2;durP2;ratioP2
7029;SDS011;3556;53.500;10.176;2024-03-22T00:02:00;29.33;;;11.67;;
7029;SDS011;3556;53.500;10.176;2024-03-22T00:04:26;24.57;;;12.97;;
7029;SDS011;3556;53.500;10.176;2024-03-22T00:06:51;26.67;;;13.50;;
7029;SDS011;3556;53.500;10.176;2024-03-22T00:09:17;23.40;;;11.97;;
7029;SDS011;3556;53.500;10.176;2024-03-22T00:11:43;28.10;;;12.57;;
7029;SDS011;3556;53.500;10.176;2024-03-22T00:14:09;26.60;;;11.90;;
7029;SDS011;3556;53.500;10.176;2024-03-22T00:16:35;24.27;;;13.10;;
7029;SDS011;3556;53.500;10.176;2024-03-22T00:19:01;28.50;;;12.10;;
7029;SDS011;3556;53.500;10.176;2024-03-22T00:21:27;25.70;;;12.40;;
7029;SDS011;3556;53.500;10.176;2024-03-22T00:23:54;21.93;;;12.07;;
7029;SDS011;3556;53.500;10.176;2024-03-22T00:26:20;27.87;;;12.97;;
7029;SDS011;3556;53.500;10.176;2024-03-22T00:28:46;25.77;;;12.03;;
7029;SDS011;3556;53.500;10.176;2024-03-22T00:31:11;27.10;;;12.60;;
7029;SDS011;3556;53.500;10.176;2024-03-22T00:33:37;26.03;;;13.47;;
7029;SDS011;3556;53.500;10.176;2024-03-22T00:36:03;23.77;;;13.67;;
7029;SDS011;3556;53.500;10.176;2024-03-22T00:38:28;21.13;;;11.67;;
7029;SDS011;3556;53.500;10.176;2024-03-22T00:40:54;27.70;;;13.40;;
7029;SDS011;3556;53.500;10.176;2024-03-22T00:43:20;28.37;;;13.50;;
7029;SDS011;3556;53.500;10.176;2024-03-22T00:45:46;27.67;;;13.93;;
7029;SDS011;3556;53.500;10.176;2024-03-22T00:48:12;31.07;;;13.03;;
7029;SDS011;3556;53.500;10.176;2024-03-22T00:50:38;28.77;;;13.43;;
7029;SDS011;3556;53.500;10.176;2024-03-22T00:53:03;27.77;;;14.37;;
7029;SDS011;3556;53.500;10.176;2024-03-22T00:55:30;23.93;;;12.93;;
7029;SDS011;3556;53.500;10.176;2024-03-22T00:57:56;29.00;;;14.23;;
7029;SDS011;3556;53.500;10.176;2024-03-22T01:00:22;26.43;;;12.97;;
7029;SDS011;3556;53.500;10.176;2024-03-22T01:02:49;26.70;;;13.00;;
7029;SDS011;3556;53.500;10.176;2024-03-22T01:05:15;24.87;;;13.40;;
7029;SDS011;3556;53.500;10.176;2024-03-22T01:07:41;27.87;;;14.57;;
7029;SDS011;3556;53.500;10.176;2024-03-22T01:10:07;29.23;;;14.87;;
7029;SDS011;3556;53.500;10.176;2024-03-22T01:12:32;28.73;;;14.30;;
7029;SDS011;3556;53.500;10.176;2024-03-22T01:14:58;22.93;;;12.97;;
7029;SDS011;3556;53.500;10.176;2024-03-22T01:17:24;31.17;;;13.90;;
7029;SDS011;3556;53.500;10.176;2024-03-22T01:19:49;25.97;;;14.30;;
7029;SDS011;3556;53.500;10.176;2024-03-22T01:22:17;31.23;;;13.80;;
7029;SDS011;3556;53.500;10.176;2024-03-22T01:24:43;26.53;;;15.20;;
7029;SDS011;3556;53.500;10.176;2024-03-22T01:27:09;25.10;;;13.53;;
7029;SDS011;3556;53.500;10.176;2024-03-22T01:29:35;31.57;;;15.70;;
7029;SDS011;3556;53.500;10.176;2024-03-22T01:32:01;29.43;;;15.87;;
7029;SDS011;3556;53.500;10.176;2024-03-22T01:34:27;34.80;;;16.67;;
7029;SDS011;3556;53.500;10.176;2024-03-22T01:36:52;35.10;;;16.33;;
7029;SDS011;3556;53.500;10.176;2024-03-22T01:39:18;32.40;;;16.87;;
7029;SDS011;3556;53.500;10.176;2024-03-22T01:41:46;33.67;;;16.43;;
7029;SDS011;3556;53.500;10.176;2024-03-22T01:44:12;33.80;;;16.50;;
7029;SDS011;3556;53.500;10.176;2024-03-22T01:46:39;32.43;;;16.73;;
7029;SDS011;3556;53.500;10.176;2024-03-22T01:49:05;33.30;;;16.40;;
7029;SDS011;3556;53.500;10.176;2024-03-22T01:51:31;33.63;;;17.93;;
7029;SDS011;3556;53.500;10.176;2024-03-22T01:53:57;34.70;;;17.57;;
7029;SDS011;3556;53.500;10.176;2024-03-22T01:56:26;36.07;;;18.53;;
7029;SDS011;3556;53.500;10.176;2024-03-22T01:58:52;36.93;;;18.60;;
7029;SDS011;3556;53.500;10.176;2024-03-22T02:01:18;32.60;;;18.63;;
7029;SDS011;3556;53.500;10.176;2024-03-22T02:03:43;36.07;;;18.63;;
7029;SDS011;3556;53.500;10.176;2024-03-22T02:06:09;40.83;;;21.00;;
7029;SDS011;3556;53.500;10.176;2024-03-22T02:08:35;37.67;;;19.73;;
7029;SDS011;3556;53.500;10.176;2024-03-22T02:11:00;36.87;;;19.63;;
7029;SDS011;3556;53.500;10.176;2024-03-22T02:13:26;40.53;;;20.70;;
7029;SDS011;3556;53.500;10.176;2024-03-22T02:15:52;40.63;;;20.40;;
7029;SDS011;3556;53.500;10.176;2024-03-22T02:18:17;43.07;;;21.27;;
7029;SDS011;3556;53.500;10.176;2024-03-22T02:20:43;44.23;;;21.70;;
7029;SDS011;3556;53.500;10.176;2024-03-22T02:23:09;42.47;;;20.60;;
7029;SDS011;3556;53.500;10.176;2024-03-22T02:25:34;40.93;;;21.00;;
7029;SDS011;3556;53.500;10.176;2024-03-22T02:28:00;42.90;;;20.90;;
7029;SDS011;3556;53.500;10.176;2024-03-22T02:30:25;37.53;;;20.93;;
7029;SDS011;3556;53.500;10.176;2024-03-22T02:32:51;40.33;;;21.17;;
7029;SDS011;3556;53.500;10.176;2024-03-22T02:35:16;46.17;;;21.80;;
7029;SDS011;3556;53.500;10.176;2024-03-22T02:37:42;43.73;;;22.13;;
7029;SDS011;3556;53.500;10.176;2024-03-22T02:40:08;44.17;;;22.60;;
7029;SDS011;3556;53.500;10.176;2024-03-22T02:42:34;44.60;;;21.07;;
7029;SDS011;3556;53.500;10.176;2024-03-22T02:44:59;42.40;;;22.10;;
7029;SDS011;3556;53.500;10.176;2024-03-22T02:47:25;41.67;;;22.30;;
7029;SDS011;3556;53.500;10.176;2024-03-22T02:49:50;43.67;;;21.50;;
7029;SDS011;3556;53.500;10.176;2024-03-22T02:52:16;50.83;;;22.93;;
7029;SDS011;3556;53.500;10.176;2024-03-22T02:54:41;39.93;;;22.33;;
7029;SDS011;3556;53.500;10.176;2024-03-22T02:57:07;46.60;;;22.67;;
7029;SDS011;3556;53.500;10.176;2024-03-22T02:59:33;42.93;;;23.70;;
7029;SDS011;3556;53.500;10.176;2024-03-22T03:01:58;46.80;;;22.10;;
7029;SDS011;3556;53.500;10.176;2024-03-22T03:04:24;43.60;;;22.80;;
7029;SDS011;3556;53.500;10.176;2024-03-22T03:06:49;46.97;;;23.17;;
7029;SDS011;3556;53.500;10.176;2024-03-22T03:09:15;41.60;;;22.70;;
7029;SDS011;3556;53.500;10.176;2024-03-22T03:11:41;50.13;;;24.80;;
7029;SDS011;3556;53.500;10.176;2024-03-22T03:14:06;54.57;;;25.63;;
7029;SDS011;3556;53.500;10.176;2024-03-22T03:16:32;45.03;;;23.53;;
7029;SDS011;3556;53.500;10.176;2024-03-22T03:18:58;46.97;;;24.87;;
7029;SDS011;3556;53.500;10.176;2024-03-22T03:21:23;50.77;;;25.33;;
7029;SDS011;3556;53.500;10.176;2024-03-22T03:23:49;49.37;;;25.67;;
7029;SDS011;3556;53.500;10.176;2024-03-22T03:26:15;52.43;;;25.87;;
7029;SDS011;3556;53.500;10.176;2024-03-22T03:28:40;47.43;;;24.67;;
7029;SDS011;3556;53.500;10.176;2024-03-22T03:31:06;47.20;;;24.90;;
7029;SDS011;3556;53.500;10.176;2024-03-22T03:33:33;46.47;;;24.27;;
7029;SDS011;3556;53.500;10.176;2024-03-22T03:35:58;51.07;;;26.23;;
7029;SDS011;3556;53.500;10.176;2024-03-22T03:38:24;51.47;;;26.60;;
7029;SDS011;3556;53.500;10.176;2024-03-22T03:40:49;58.50;;;26.90;;
7029;SDS011;3556;53.500;10.176;2024-03-22T03:43:15;52.00;;;26.30;;
7029;SDS011;3556;53.500;10.176;2024-03-22T03:45:41;54.03;;;26.57;;
7029;SDS011;3556;53.500;10.176;2024-03-22T03:48:07;48.50;;;25.20;;
7029;SDS011;3556;53.500;10.176;2024-03-22T03:50:32;47.70;;;26.70;;
7029;SDS011;3556;53.500;10.176;2024-03-22T03:52:58;54.37;;;27.77;;
7029;SDS011;3556;53.500;10.176;2024-03-22T03:55:23;55.17;;;26.73;;
7029;SDS011;3556;53.500;10.176;2024-03-22T03:57:50;54.83;;;27.83;;
7029;SDS011;3556;53.500;10.176;2024-03-22T04:00:16;59.23;;;28.30;;
7029;SDS011;3556;53.500;10.176;2024-03-22T04:02:42;55.80;;;29.07;;
7029;SDS011;3556;53.500;10.176;2024-03-22T04:05:08;57.70;;;28.80;;
7029;SDS011;3556;53.500;10.176;2024-03-22T04:07:33;54.60;;;28.00;;
7029;SDS011;3556;53.500;10.176;2024-03-22T04:09:59;53.87;;;28.30;;
7029;SDS011;3556;53.500;10.176;2024-03-22T04:12:27;55.20;;;28.90;;
7029;SDS011;3556;53.500;10.176;2024-03-22T04:14:54;57.93;;;28.70;;
7029;SDS011;3556;53.500;10.176;2024-03-22T04:17:19;59.40;;;27.93;;
7029;SDS011;3556;53.500;10.176;2024-03-22T04:19:45;57.53;;;27.83;;
7029;SDS011;3556;53.500;10.176;2024-03-22T04:22:10;61.93;;;30.27;;
7029;SDS011;3556;53.500;10.176;2024-03-22T04:24:36;63.63;;;29.70;;
7029;SDS011;3556;53.500;10.176;2024-03-22T04:27:02;62.13;;;30.10;;
7029;SDS011;3556;53.500;10.176;2024-03-22T04:29:27;60.33;;;28.87;;
7029;SDS011;3556;53.500;10.176;2024-03-22T04:31:53;59.80;;;29.20;;
7029;SDS011;3556;53.500;10.176;2024-03-22T04:34:18;58.63;;;28.33;;
7029;SDS011;3556;53.500;10.176;2024-03-22T04:36:44;56.63;;;29.30;;
7029;SDS011;3556;53.500;10.176;2024-03-22T04:39:09;64.50;;;30.67;;
7029;SDS011;3556;53.500;10.176;2024-03-22T04:41:37;58.40;;;29.40;;
7029;SDS011;3556;53.500;10.176;2024-03-22T04:44:02;60.07;;;30.07;;
7029;SDS011;3556;53.500;10.176;2024-03-22T04:46:28;57.00;;;30.30;;
7029;SDS011;3556;53.500;10.176;2024-03-22T04:48:54;63.83;;;31.67;;
7029;SDS011;3556;53.500;10.176;2024-03-22T04:51:19;71.73;;;32.70;;
7029;SDS011;3556;53.500;10.176;2024-03-22T04:53:45;63.07;;;30.03;;
7029;SDS011;3556;53.500;10.176;2024-03-22T04:56:11;60.13;;;29.57;;
7029;SDS011;3556;53.500;10.176;2024-03-22T04:58:36;68.57;;;31.50;;
7029;SDS011;3556;53.500;10.176;2024-03-22T05:01:02;61.63;;;30.63;;
7029;SDS011;3556;53.500;10.176;2024-03-22T05:03:28;62.77;;;32.00;;
7029;SDS011;3556;53.500;10.176;2024-03-22T05:05:53;67.80;;;31.37;;
7029;SDS011;3556;53.500;10.176;2024-03-22T05:08:19;70.17;;;32.33;;
7029;SDS011;3556;53.500;10.176;2024-03-22T05:10:45;68.73;;;32.23;;
7029;SDS011;3556;53.500;10.176;2024-03-22T05:13:11;67.20;;;33.27;;
7029;SDS011;3556;53.500;10.176;2024-03-22T05:15:36;60.57;;;31.30;;
7029;SDS011;3556;53.500;10.176;2024-03-22T05:18:02;60.07;;;30.57;;
7029;SDS011;3556;53.500;10.176;2024-03-22T05:20:28;60.47;;;31.50;;
7029;SDS011;3556;53.500;10.176;2024-03-22T05:22:54;62.03;;;31.20;;
7029;SDS011;3556;53.500;10.176;2024-03-22T05:25:20;60.43;;;31.00;;
7029;SDS011;3556;53.500;10.176;2024-03-22T05:27:45;63.30;;;31.73;;
7029;SDS011;3556;53.500;10.176;2024-03-22T05:30:11;69.93;;;32.77;;
7029;SDS011;3556;53.500;10.176;2024-03-22T05:32:38;65.03;;;32.07;;
7029;SDS011;3556;53.500;10.176;2024-03-22T05:35:05;69.93;;;33.90;;
7029;SDS011;3556;53.500;10.176;2024-03-22T05:37:31;66.20;;;31.90;;
7029;SDS011;3556;53.500;10.176;2024-03-22T05:39:58;65.07;;;32.53;;
7029;SDS011;3556;53.500;10.176;2024-03-22T05:42:25;64.17;;;32.27;;
7029;SDS011;3556;53.500;10.176;2024-03-22T05:44:51;67.90;;;33.00;;
7029;SDS011;3556;53.500;10.176;2024-03-22T05:47:17;71.63;;;33.17;;
7029;SDS011;3556;53.500;10.176;2024-03-22T05:49:43;65.50;;;31.53;;
7029;SDS011;3556;53.500;10.176;2024-03-22T05:52:09;70.17;;;33.30;;
7029;SDS011;3556;53.500;10.176;2024-03-22T05:54:35;75.03;;;36.10;;
7029;SDS011;3556;53.500;10.176;2024-03-22T05:57:02;69.63;;;33.60;;
7029;SDS011;3556;53.500;10.176;2024-03-22T05:59:28;73.07;;;34.83;;
7029;SDS011;3556;53.500;10.176;2024-03-22T06:01:53;74.30;;;34.27;;
7029;SDS011;3556;53.500;10.176;2024-03-22T06:04:19;79.67;;;36.50;;
7029;SDS011;3556;53.500;10.176;2024-03-22T06:06:44;74.80;;;35.33;;
7029;SDS011;3556;53.500;10.176;2024-03-22T06:09:10;83.20;;;36.30;;
7029;SDS011;3556;53.500;10.176;2024-03-22T06:11:38;77.07;;;37.47;;
7029;SDS011;3556;53.500;10.176;2024-03-22T06:14:04;85.17;;;36.80;;
7029;SDS011;3556;53.500;10.176;2024-03-22T06:16:30;91.00;;;38.77;;
7029;SDS011;3556;53.500;10.176;2024-03-22T06:18:56;84.17;;;37.93;;
7029;SDS011;3556;53.500;10.176;2024-03-22T06:21:21;90.17;;;38.70;;
7029;SDS011;3556;53.500;10.176;2024-03-22T06:23:49;89.53;;;37.67;;
7029;SDS011;3556;53.500;10.176;2024-03-22T06:26:15;85.47;;;38.07;;
7029;SDS011;3556;53.500;10.176;2024-03-22T06:28:41;76.83;;;37.37;;
7029;SDS011;3556;53.500;10.176;2024-03-22T06:31:07;78.80;;;37.03;;
7029;SDS011;3556;53.500;10.176;2024-03-22T06:33:33;81.97;;;37.70;;
7029;SDS011;3556;53.500;10.176;2024-03-22T06:35:59;83.97;;;39.17;;
7029;SDS011;3556;53.500;10.176;2024-03-22T06:38:24;83.10;;;38.00;;
7029;SDS011;3556;53.500;10.176;2024-03-22T06:40:50;80.53;;;38.07;;
7029;SDS011;3556;53.500;10.176;2024-03-22T06:43:16;81.63;;;39.57;;
7029;SDS011;3556;53.500;10.176;2024-03-22T06:45:42;85.33;;;39.60;;
7029;SDS011;3556;53.500;10.176;2024-03-22T06:48:07;96.90;;;40.40;;
7029;SDS011;3556;53.500;10.176;2024-03-22T06:50:33;86.23;;;39.63;;
7029;SDS011;3556;53.500;10.176;2024-03-22T06:52:58;87.23;;;40.93;;
7029;SDS011;3556;53.500;10.176;2024-03-22T06:55:24;92.30;;;41.63;;
7029;SDS011;3556;53.500;10.176;2024-03-22T06:57:50;91.30;;;41.97;;
7029;SDS011;3556;53.500;10.176;2024-03-22T07:00:17;87.50;;;40.40;;
7029;SDS011;3556;53.500;10.176;2024-03-22T07:02:43;84.60;;;39.37;;
7029;SDS011;3556;53.500;10.176;2024-03-22T07:05:09;91.37;;;40.57;;
7029;SDS011;3556;53.500;10.176;2024-03-22T07:07:35;86.17;;;38.37;;
7029;SDS011;3556;53.500;10.176;2024-03-22T07:10:02;93.03;;;41.13;;
7029;SDS011;3556;53.500;10.176;2024-03-22T07:12:28;85.70;;;38.03;;
7029;SDS011;3556;53.500;10.176;2024-03-22T07:14:54;82.90;;;38.83;;
7029;SDS011;3556;53.500;10.176;2024-03-22T07:17:21;94.87;;;40.77;;
7029;SDS011;3556;53.500;10.176;2024-03-22T07:19:50;91.00;;;40.60;;
7029;SDS011;3556;53.500;10.176;2024-03-22T07:22:16;89.60;;;41.20;;
7029;SDS011;3556;53.500;10.176;2024-03-22T07:24:42;88.70;;;41.27;;
7029;SDS011;3556;53.500;10.176;2024-03-22T07:27:08;91.43;;;41.40;;
7029;SDS011;3556;53.500;10.176;2024-03-22T07:29:34;87.17;;;39.10;;
7029;SDS011;3556;53.500;10.176;2024-03-22T07:31:59;84.10;;;39.60;;
7029;SDS011;3556;53.500;10.176;2024-03-22T07:34:25;88.77;;;39.77;;
7029;SDS011;3556;53.500;10.176;2024-03-22T07:36:50;86.70;;;39.90;;
7029;SDS011;3556;53.500;10.176;2024-03-22T07:39:16;83.27;;;39.27;;
7029;SDS011;3556;53.500;10.176;2024-03-22T07:41:42;89.70;;;40.57;;
7029;SDS011;3556;53.500;10.176;2024-03-22T07:44:07;91.53;;;40.33;;
7029;SDS011;3556;53.500;10.176;2024-03-22T07:46:33;90.83;;;41.67;;
7029;SDS011;3556;53.500;10.176;2024-03-22T07:48:58;90.00;;;40.57;;
7029;SDS011;3556;53.500;10.176;2024-03-22T07:51:24;89.30;;;40.83;;
7029;SDS011;3556;53.500;10.176;2024-03-22T07:53:50;100.77;;;42.47;;
7029;SDS011;3556;53.500;10.176;2024-03-22T07:56:17;94.23;;;41.23;;
7029;SDS011;3556;53.500;10.176;2024-03-22T07:58:42;92.43;;;42.13;;
7029;SDS011;3556;53.500;10.176;2024-03-22T08:01:08;97.33;;;40.43;;
7029;SDS011;3556;53.500;10.176;2024-03-22T08:03:34;87.33;;;40.10;;
7029;SDS011;3556;53.500;10.176;2024-03-22T08:05:59;96.67;;;42.80;;
7029;SDS011;3556;53.500;10.176;2024-03-22T08:08:25;89.03;;;40.17;;
7029;SDS011;3556;53.500;10.176;2024-03-22T08:10:50;89.30;;;40.17;;
7029;SDS011;3556;53.500;10.176;2024-03-22T08:13:16;89.37;;;41.40;;
7029;SDS011;3556;53.500;10.176;2024-03-22T08:15:42;87.33;;;39.30;;
7029;SDS011;3556;53.500;10.176;2024-03-22T08:18:10;95.70;;;43.10;;
7029;SDS011;3556;53.500;10.176;2024-03-22T08:20:36;100.97;;;40.70;;
7029;SDS011;3556;53.500;10.176;2024-03-22T08:23:03;83.87;;;38.60;;
7029;SDS011;3556;53.500;10.176;2024-03-22T08:25:29;92.90;;;40.63;;
7029;SDS011;3556;53.500;10.176;2024-03-22T08:27:55;88.83;;;41.40;;
7029;SDS011;3556;53.500;10.176;2024-03-22T08:30:21;90.97;;;40.43;;
7029;SDS011;3556;53.500;10.176;2024-03-22T08:32:47;96.27;;;40.93;;
7029;SDS011;3556;53.500;10.176;2024-03-22T08:35:13;98.27;;;40.27;;
7029;SDS011;3556;53.500;10.176;2024-03-22T08:37:39;88.57;;;40.30;;
7029;SDS011;3556;53.500;10.176;2024-03-22T08:40:05;88.33;;;38.70;;
7029;SDS011;3556;53.500;10.176;2024-03-22T08:42:31;94.50;;;40.83;;
7029;SDS011;3556;53.500;10.176;2024-03-22T08:44:57;88.47;;;40.57;;
7029;SDS011;3556;53.500;10.176;2024-03-22T08:47:23;90.50;;;37.53;;
7029;SDS011;3556;53.500;10.176;2024-03-22T08:49:48;87.57;;;39.90;;
7029;SDS011;3556;53.500;10.176;2024-03-22T08:52:14;92.23;;;38.70;;
7029;SDS011;3556;53.500;10.176;2024-03-22T08:54:40;89.97;;;40.10;;
7029;SDS011;3556;53.500;10.176;2024-03-22T08:57:06;98.73;;;40.83;;
7029;SDS011;3556;53.500;10.176;2024-03-22T08:59:31;92.67;;;40.53;;
7029;SDS011;3556;53.500;10.176;2024-03-22T09:01:57;90.30;;;40.63;;
7029;SDS011;3556;53.500;10.176;2024-03-22T09:04:24;92.20;;;41.23;;
7029;SDS011;3556;53.500;10.176;2024-03-22T09:06:50;95.63;;;41.50;;
7029;SDS011;3556;53.500;10.176;2024-03-22T09:09:16;98.67;;;42.37;;
7029;SDS011;3556;53.500;10.176;2024-03-22T09:11:42;95.30;;;40.70;;
7029;SDS011;3556;53.500;10.176;2024-03-22T09:14:07;98.47;;;41.70;;
7029;SDS011;3556;53.500;10.176;2024-03-22T09:16:33;103.93;;;42.07;;
7029;SDS011;3556;53.500;10.176;2024-03-22T09:18:59;108.07;;;42.17;;
7029;SDS011;3556;53.500;10.176;2024-03-22T09:21:24;94.73;;;41.27;;
7029;SDS011;3556;53.500;10.176;2024-03-22T09:23:50;102.30;;;42.00;;
7029;SDS011;3556;53.500;10.176;2024-03-22T09:26:16;98.23;;;40.07;;
7029;SDS011;3556;53.500;10.176;2024-03-22T09:28:41;103.70;;;41.80;;
7029;SDS011;3556;53.500;10.176;2024-03-22T09:31:07;94.03;;;40.27;;
7029;SDS011;3556;53.500;10.176;2024-03-22T09:33:36;91.27;;;37.70;;
7029;SDS011;3556;53.500;10.176;2024-03-22T09:36:02;88.13;;;39.20;;
7029;SDS011;3556;53.500;10.176;2024-03-22T09:38:28;95.90;;;40.00;;
7029;SDS011;3556;53.500;10.176;2024-03-22T09:40:54;97.90;;;39.70;;
7029;SDS011;3556;53.500;10.176;2024-03-22T09:43:20;94.60;;;40.13;;
7029;SDS011;3556;53.500;10.176;2024-03-22T09:45:47;93.40;;;39.10;;
7029;SDS011;3556;53.500;10.176;2024-03-22T09:48:14;102.30;;;42.10;;
7029;SDS011;3556;53.500;10.176;2024-03-22T09:50:44;92.87;;;40.07;;
7029;SDS011;3556;53.500;10.176;2024-03-22T09:53:13;94.57;;;39.70;;
7029;SDS011;3556;53.500;10.176;2024-03-22T09:55:47;96.20;;;39.20;;
7029;SDS011;3556;53.500;10.176;2024-03-22T09:58:13;94.70;;;39.10;;
7029;SDS011;3556;53.500;10.176;2024-03-22T10:00:41;84.20;;;36.93;;
7029;SDS011;3556;53.500;10.176;2024-03-22T10:03:07;85.80;;;36.47;;
7029;SDS011;3556;53.500;10.176;2024-03-22T10:05:34;85.70;;;36.37;;
7029;SDS011;3556;53.500;10.176;2024-03-22T10:08:00;80.17;;;34.40;;
7029;SDS011;3556;53.500;10.176;2024-03-22T10:10:26;75.63;;;33.10;;
7029;SDS011;3556;53.500;10.176;2024-03-22T10:12:52;78.50;;;34.33;;
7029;SDS011;3556;53.500;10.176;2024-03-22T10:15:21;77.67;;;34.10;;
7029;SDS011;3556;53.500;10.176;2024-03-22T10:17:48;76.60;;;33.23;;
7029;SDS011;3556;53.500;10.176;2024-03-22T10:20:14;83.03;;;35.97;;
7029;SDS011;3556;53.500;10.176;2024-03-22T10:22:43;80.40;;;35.10;;
7029;SDS011;3556;53.500;10.176;2024-03-22T10:25:25;81.17;;;36.53;;
7029;SDS011;3556;53.500;10.176;2024-03-22T10:27:53;86.33;;;34.80;;
7029;SDS011;3556;53.500;10.176;2024-03-22T10:30:24;79.70;;;34.50;;
7029;SDS011;3556;53.500;10.176;2024-03-22T10:32:50;86.07;;;36.97;;
7029;SDS011;3556;53.500;10.176;2024-03-22T10:35:16;88.90;;;37.10;;
7029;SDS011;3556;53.500;10.176;2024-03-22T10:37:42;89.60;;;38.27;;
7029;SDS011;3556;53.500;10.176;2024-03-22T10:40:08;78.43;;;35.20;;
7029;SDS011;3556;53.500;10.176;2024-03-22T10:42:35;75.73;;;35.13;;
7029;SDS011;3556;53.500;10.176;2024-03-22T10:45:02;85.10;;;36.50;;
7029;SDS011;3556;53.500;10.176;2024-03-22T10:47:30;82.97;;;36.03;;
7029;SDS011;3556;53.500;10.176;2024-03-22T10:50:00;81.47;;;35.20;;
7029;SDS011;3556;53.500;10.176;2024-03-22T10:52:29;77.40;;;33.10;;
7029;SDS011;3556;53.500;10.176;2024-03-22T10:55:00;67.60;;;31.67;;
7029;SDS011;3556;53.500;10.176;2024-03-22T10:57:29;70.77;;;31.87;;
7029;SDS011;3556;53.500;10.176;2024-03-22T10:59:56;68.37;;;30.67;;
7029;SDS011;3556;53.500;10.176;2024-03-22T11:02:23;64.30;;;29.60;;
7029;SDS011;3556;53.500;10.176;2024-03-22T11:04:58;62.70;;;28.70;;
7029;SDS011;3556;53.500;10.176;2024-03-22T11:07:28;58.80;;;26.70;;
7029;SDS011;3556;53.500;10.176;2024-03-22T11:09:58;58.20;;;26.63;;
7029;SDS011;3556;53.500;10.176;2024-03-22T11:12:31;48.30;;;23.10;;
7029;SDS011;3556;53.500;10.176;2024-03-22T11:14:58;47.93;;;23.70;;
7029;SDS011;3556;53.500;10.176;2024-03-22T11:17:24;39.70;;;20.87;;
7029;SDS011;3556;53.500;10.176;2024-03-22T11:19:50;49.13;;;23.03;;
7029;SDS011;3556;53.500;10.176;2024-03-22T11:22:17;45.73;;;21.70;;
7029;SDS011;3556;53.500;10.176;2024-03-22T11:24:43;43.87;;;21.07;;
7029;SDS011;3556;53.500;10.176;2024-03-22T11:27:09;37.67;;;19.80;;
7029;SDS011;3556;53.500;10.176;2024-03-22T11:29:36;39.43;;;20.80;;
7029;SDS011;3556;53.500;10.176;2024-03-22T11:32:06;42.53;;;20.23;;
7029;SDS011;3556;53.500;10.176;2024-03-22T11:34:34;40.80;;;20.30;;
7029;SDS011;3556;53.500;10.176;2024-03-22T11:37:00;42.23;;;20.67;;
7029;SDS011;3556;53.500;10.176;2024-03-22T11:39:26;39.97;;;21.13;;
7029;SDS011;3556;53.500;10.176;2024-03-22T11:41:52;38.63;;;19.20;;
7029;SDS011;3556;53.500;10.176;2024-03-22T11:44:17;46.13;;;20.53;;
7029;SDS011;3556;53.500;10.176;2024-03-22T11:46:44;42.43;;;19.67;;
7029;SDS011;3556;53.500;10.176;2024-03-22T11:49:10;40.30;;;19.07;;
7029;SDS011;3556;53.500;10.176;2024-03-22T11:51:36;38.40;;;19.20;;
7029;SDS011;3556;53.500;10.176;2024-03-22T11:54:02;39.87;;;20.00;;
7029;SDS011;3556;53.500;10.176;2024-03-22T11:56:28;39.90;;;19.20;;
7029;SDS011;3556;53.500;10.176;2024-03-22T11:58:59;37.47;;;18.60;;
7029;SDS011;3556;53.500;10.176;2024-03-22T12:01:25;39.37;;;19.33;;
7029;SDS011;3556;53.500;10.176;2024-03-22T12:03:51;31.40;;;17.60;;
7029;SDS011;3556;53.500;10.176;2024-03-22T12:06:18;36.23;;;18.27;;
7029;SDS011;3556;53.500;10.176;2024-03-22T12:08:45;35.80;;;17.37;;
7029;SDS011;3556;53.500;10.176;2024-03-22T12:11:10;36.70;;;17.40;;
7029;SDS011;3556;53.500;10.176;2024-03-22T12:13:37;30.43;;;17.27;;
7029;SDS011;3556;53.500;10.176;2024-03-22T12:16:03;33.87;;;16.07;;
7029;SDS011;3556;53.500;10.176;2024-03-22T12:18:30;30.10;;;15.53;;
7029;SDS011;3556;53.500;10.176;2024-03-22T12:20:55;27.37;;;14.90;;
7029;SDS011;3556;53.500;10.176;2024-03-22T12:23:21;26.80;;;14.57;;
7029;SDS011;3556;53.500;10.176;2024-03-22T12:25:47;27.57;;;14.33;;
7029;SDS011;3556;53.500;10.176;2024-03-22T12:28:12;27.17;;;13.97;;
7029;SDS011;3556;53.500;10.176;2024-03-22T12:30:39;31.37;;;14.37;;
7029;SDS011;3556;53.500;10.176;2024-03-22T12:33:05;35.20;;;12.97;;
7029;SDS011;3556;53.500;10.176;2024-03-22T12:35:35;20.57;;;12.33;;
7029;SDS011;3556;53.500;10.176;2024-03-22T12:38:01;22.40;;;12.67;;
7029;SDS011;3556;53.500;10.176;2024-03-22T12:40:27;27.80;;;12.23;;
7029;SDS011;3556;53.500;10.176;2024-03-22T12:42:54;21.30;;;11.33;;
7029;SDS011;3556;53.500;10.176;2024-03-22T12:45:21;21.10;;;12.00;;
7029;SDS011;3556;53.500;10.176;2024-03-22T12:47:47;23.87;;;12.97;;
7029;SDS011;3556;53.500;10.176;2024-03-22T12:50:12;21.00;;;11.40;;
7029;SDS011;3556;53.500;10.176;2024-03-22T12:52:38;22.77;;;12.73;;
7029;SDS011;3556;53.500;10.176;2024-03-22T12:55:04;18.87;;;12.10;;
7029;SDS011;3556;53.500;10.176;2024-03-22T12:57:31;20.43;;;11.73;;
7029;SDS011;3556;53.500;10.176;2024-03-22T12:59:57;19.40;;;12.10;;
7029;SDS011;3556;53.500;10.176;2024-03-22T13:02:23;22.23;;;12.80;;
7029;SDS011;3556;53.500;10.176;2024-03-22T13:04:51;23.20;;;12.10;;
7029;SDS011;3556;53.500;10.176;2024-03-22T13:07:18;22.23;;;12.80;;
7029;SDS011;3556;53.500;10.176;2024-03-22T13:09:44;23.53;;;13.03;;
7029;SDS011;3556;53.500;10.176;2024-03-22T13:12:10;18.77;;;11.87;;
7029;SDS011;3556;53.500;10.176;2024-03-22T13:14:36;26.03;;;13.00;;
7029;SDS011;3556;53.500;10.176;2024-03-22T13:17:02;18.87;;;11.60;;
7029;SDS011;3556;53.500;10.176;2024-03-22T13:19:27;24.63;;;13.00;;
7029;SDS011;3556;53.500;10.176;2024-03-22T13:21:53;21.80;;;12.67;;
7029;SDS011;3556;53.500;10.176;2024-03-22T13:24:18;21.70;;;12.77;;
7029;SDS011;3556;53.500;10.176;2024-03-22T13:26:44;18.50;;;12.20;;
7029;SDS011;3556;53.500;10.176;2024-03-22T13:29:10;19.97;;;12.23;;
7029;SDS011;3556;53.500;10.176;2024-03-22T13:31:37;21.93;;;13.57;;
7029;SDS011;3556;53.500;10.176;2024-03-22T13:34:03;20.73;;;12.00;;
7029;SDS011;3556;53.500;10.176;2024-03-22T13:36:29;18.47;;;11.67;;
7029;SDS011;3556;53.500;10.176;2024-03-22T13:38:57;21.10;;;11.80;;
7029;SDS011;3556;53.500;10.176;2024-03-22T13:41:23;18.13;;;11.30;;
7029;SDS011;3556;53.500;10.176;2024-03-22T13:43:49;19.67;;;12.67;;
7029;SDS011;3556;53.500;10.176;2024-03-22T13:46:14;22.83;;;12.83;;
7029;SDS011;3556;53.500;10.176;2024-03-22T13:48:42;19.70;;;12.17;;
7029;SDS011;3556;53.500;10.176;2024-03-22T13:51:08;24.60;;;11.63;;
7029;SDS011;3556;53.500;10.176;2024-03-22T13:53:33;16.70;;;10.70;;
7029;SDS011;3556;53.500;10.176;2024-03-22T13:55:59;21.23;;;10.60;;
7029;SDS011;3556;53.500;10.176;2024-03-22T13:58:26;12.80;;;9.10;;
7029;SDS011;3556;53.500;10.176;2024-03-22T14:00:52;10.17;;;7.90;;
7029;SDS011;3556;53.500;10.176;2024-03-22T14:03:18;8.97;;;7.20;;
7029;SDS011;3556;53.500;10.176;2024-03-22T14:05:44;6.13;;;5.17;;
7029;SDS011;3556;53.500;10.176;2024-03-22T14:08:09;5.77;;;4.80;;
7029;SDS011;3556;53.500;10.176;2024-03-22T14:10:35;6.70;;;5.57;;
7029;SDS011;3556;53.500;10.176;2024-03-22T14:13:01;7.70;;;6.17;;
7029;SDS011;3556;53.500;10.176;2024-03-22T14:15:27;9.50;;;6.43;;
7029;SDS011;3556;53.500;10.176;2024-03-22T14:17:56;8.10;;;6.93;;
7029;SDS011;3556;53.500;10.176;2024-03-22T14:20:22;13.00;;;8.17;;
7029;SDS011;3556;53.500;10.176;2024-03-22T14:22:49;11.10;;;8.80;;
7029;SDS011;3556;53.500;10.176;2024-03-22T14:25:16;12.60;;;9.80;;
7029;SDS011;3556;53.500;10.176;2024-03-22T14:27:42;10.87;;;9.33;;
7029;SDS011;3556;53.500;10.176;2024-03-22T14:30:11;10.03;;;8.37;;